Terminal Aerodrome Forecast
Issued by NWS Newport/Morehead City, NC

Home | Current Version | Previous Version | Text Only | Print | Product List | Glossary Off
Versions: 1 2 3 4 5 6 7 8 9 10 11 12 13 14 15 16 17 18 19 20

000
FTUS42 KMHX 222321
TAFEWN
TAF
KEWN 222321Z 2300/2324 19013KT P6SM VCTS SCT050CB BKN120
     FM230200 21005KT P6SM SCT015 OVC080
     FM231000 18006KT 5SM SHRA OVC025
     FM231500 18007KT 5SM SHRA VCTS OVC015CB=

USA.gov is the U.S. government's official web portal to all federal, state and local government web resources and services.